sensor_id;sensor_type;location;lat;lon;timestamp;pressure;altitude;pressure_sealevel;temperature;humidity
42727;BME280;28372;56.832;60.658;2022-09-25T00:01:14;97394.91;;;15.33;67.62
42727;BME280;28372;56.832;60.658;2022-09-25T00:03:42;97397.69;;;15.29;67.41
42727;BME280;28372;56.832;60.658;2022-09-25T00:06:18;97396.78;;;15.36;69.98
42727;BME280;28372;56.832;60.658;2022-09-25T00:08:46;97404.66;;;15.30;67.99
42727;BME280;28372;56.832;60.658;2022-09-25T00:11:16;97404.66;;;15.30;69.03
42727;BME280;28372;56.832;60.658;2022-09-25T00:13:45;97397.81;;;15.22;67.95
42727;BME280;28372;56.832;60.658;2022-09-25T00:16:16;97407.00;;;15.32;69.76
42727;BME280;28372;56.832;60.658;2022-09-25T00:18:44;97407.09;;;15.24;67.99
42727;BME280;28372;56.832;60.658;2022-09-25T00:21:31;97403.94;;;15.26;68.75
42727;BME280;28372;56.832;60.658;2022-09-25T00:24:00;97400.53;;;15.22;69.10
42727;BME280;28372;56.832;60.658;2022-09-25T00:26:32;97413.25;;;15.29;69.20
42727;BME280;28372;56.832;60.658;2022-09-25T00:29:00;97394.34;;;15.18;68.56
42727;BME280;28372;56.832;60.658;2022-09-25T00:31:29;97403.25;;;15.22;68.95
42727;BME280;28372;56.832;60.658;2022-09-25T00:33:59;97398.91;;;15.24;68.95
42727;BME280;28372;56.832;60.658;2022-09-25T00:36:28;97409.56;;;15.15;67.26
42727;BME280;28372;56.832;60.658;2022-09-25T00:38:56;97415.44;;;15.14;67.49
42727;BME280;28372;56.832;60.658;2022-09-25T00:41:25;97415.84;;;15.12;68.57
42727;BME280;28372;56.832;60.658;2022-09-25T00:43:55;97426.44;;;15.06;68.33
42727;BME280;28372;56.832;60.658;2022-09-25T00:46:37;97438.34;;;15.16;70.20
42727;BME280;28372;56.832;60.658;2022-09-25T00:49:13;97428.00;;;15.04;70.15
42727;BME280;28372;56.832;60.658;2022-09-25T00:51:43;97424.56;;;15.00;68.02
42727;BME280;28372;56.832;60.658;2022-09-25T00:54:37;97419.94;;;14.97;69.83
42727;BME280;28372;56.832;60.658;2022-09-25T00:57:05;97428.47;;;14.99;70.07
42727;BME280;28372;56.832;60.658;2022-09-25T00:59:39;97436.19;;;15.04;71.02
42727;BME280;28372;56.832;60.658;2022-09-25T01:02:11;97431.69;;;14.90;69.85
42727;BME280;28372;56.832;60.658;2022-09-25T01:04:41;97444.94;;;14.88;68.94
42727;BME280;28372;56.832;60.658;2022-09-25T01:07:12;97438.09;;;14.76;68.42
42727;BME280;28372;56.832;60.658;2022-09-25T01:09:41;97446.50;;;14.85;69.37
42727;BME280;28372;56.832;60.658;2022-09-25T01:12:08;97440.44;;;14.74;68.71
42727;BME280;28372;56.832;60.658;2022-09-25T01:14:36;97444.72;;;14.75;68.33
42727;BME280;28372;56.832;60.658;2022-09-25T01:17:34;97448.88;;;14.83;70.94
42727;BME280;28372;56.832;60.658;2022-09-25T01:20:32;97460.84;;;14.89;71.75
42727;BME280;28372;56.832;60.658;2022-09-25T01:23:18;97468.72;;;14.84;71.87
42727;BME280;28372;56.832;60.658;2022-09-25T01:28:54;97471.03;;;14.85;70.02
42727;BME280;28372;56.832;60.658;2022-09-25T01:34:16;97470.47;;;14.67;70.48
42727;BME280;28372;56.832;60.658;2022-09-25T01:37:12;97466.31;;;14.55;68.42
42727;BME280;28372;56.832;60.658;2022-09-25T01:39:38;97467.13;;;14.52;70.23
42727;BME280;28372;56.832;60.658;2022-09-25T01:42:19;97463.53;;;14.59;70.64
42727;BME280;28372;56.832;60.658;2022-09-25T01:44:57;97464.34;;;14.55;70.15
42727;BME280;28372;56.832;60.658;2022-09-25T01:47:34;97461.72;;;14.45;69.33
42727;BME280;28372;56.832;60.658;2022-09-25T01:50:13;97469.47;;;14.50;70.38
42727;BME280;28372;56.832;60.658;2022-09-25T01:52:47;97473.09;;;14.36;71.47
42727;BME280;28372;56.832;60.658;2022-09-25T01:55:20;97479.03;;;14.27;71.01
42727;BME280;28372;56.832;60.658;2022-09-25T01:57:58;97465.06;;;14.25;70.08
42727;BME280;28372;56.832;60.658;2022-09-25T02:00:30;97486.09;;;14.17;67.84
42727;BME280;28372;56.832;60.658;2022-09-25T02:03:13;97484.88;;;14.22;72.72
42727;BME280;28372;56.832;60.658;2022-09-25T02:05:48;97498.94;;;14.17;72.44
42727;BME280;28372;56.832;60.658;2022-09-25T02:08:23;97485.34;;;14.17;70.61
42727;BME280;28372;56.832;60.658;2022-09-25T02:10:58;97494.66;;;14.16;71.36
42727;BME280;28372;56.832;60.658;2022-09-25T02:13:33;97493.91;;;14.15;73.24
42727;BME280;28372;56.832;60.658;2022-09-25T02:16:12;97494.63;;;14.19;73.12
42727;BME280;28372;56.832;60.658;2022-09-25T02:18:42;97496.25;;;14.13;71.08
42727;BME280;28372;56.832;60.658;2022-09-25T02:27:07;97479.09;;;14.20;69.29
42727;BME280;28372;56.832;60.658;2022-09-25T02:29:35;97493.91;;;14.15;68.44
42727;BME280;28372;56.832;60.658;2022-09-25T02:32:06;97484.16;;;14.18;70.36
42727;BME280;28372;56.832;60.658;2022-09-25T02:34:35;97481.13;;;14.09;69.06
42727;BME280;28372;56.832;60.658;2022-09-25T02:37:12;97456.75;;;14.01;71.28
42727;BME280;28372;56.832;60.658;2022-09-25T02:39:41;97476.88;;;14.04;70.17
42727;BME280;28372;56.832;60.658;2022-09-25T02:51:16;97512.47;;;14.24;71.40
42727;BME280;28372;56.832;60.658;2022-09-25T02:56:35;97513.72;;;14.12;70.53
42727;BME280;28372;56.832;60.658;2022-09-25T02:59:14;97512.69;;;13.95;69.41
42727;BME280;28372;56.832;60.658;2022-09-25T03:01:45;97496.13;;;13.79;69.20
42727;BME280;28372;56.832;60.658;2022-09-25T03:04:15;97497.22;;;13.88;71.07
42727;BME280;28372;56.832;60.658;2022-09-25T03:06:44;97504.38;;;13.68;68.67
42727;BME280;28372;56.832;60.658;2022-09-25T03:09:14;97517.16;;;13.75;71.21
42727;BME280;28372;56.832;60.658;2022-09-25T03:11:43;97515.59;;;13.74;70.64
42727;BME280;28372;56.832;60.658;2022-09-25T03:14:12;97515.94;;;13.76;69.64
42727;BME280;28372;56.832;60.658;2022-09-25T03:16:47;97510.78;;;13.92;72.93
42727;BME280;28372;56.832;60.658;2022-09-25T03:19:17;97514.31;;;13.89;70.77
42727;BME280;28372;56.832;60.658;2022-09-25T03:21:47;97515.41;;;13.95;69.37
42727;BME280;28372;56.832;60.658;2022-09-25T03:24:15;97511.59;;;13.89;68.32
42727;BME280;28372;56.832;60.658;2022-09-25T03:26:43;97508.09;;;13.88;68.62
42727;BME280;28372;56.832;60.658;2022-09-25T03:29:12;97519.75;;;13.89;68.64
42727;BME280;28372;56.832;60.658;2022-09-25T03:31:40;97499.25;;;13.77;68.80
42727;BME280;28372;56.832;60.658;2022-09-25T03:34:09;97510.50;;;13.76;68.39
42727;BME280;28372;56.832;60.658;2022-09-25T03:36:37;97519.81;;;13.78;69.23
42727;BME280;28372;56.832;60.658;2022-09-25T03:39:06;97522.13;;;13.80;68.67
42727;BME280;28372;56.832;60.658;2022-09-25T03:41:33;97507.03;;;13.75;68.08
42727;BME280;28372;56.832;60.658;2022-09-25T03:44:02;97511.31;;;13.76;68.54
42727;BME280;28372;56.832;60.658;2022-09-25T03:46:32;97508.25;;;13.67;69.66
42727;BME280;28372;56.832;60.658;2022-09-25T03:49:01;97505.25;;;13.54;67.99
42727;BME280;28372;56.832;60.658;2022-09-25T03:51:30;97512.19;;;13.62;70.42
42727;BME280;28372;56.832;60.658;2022-09-25T03:53:58;97510.63;;;13.58;68.60
42727;BME280;28372;56.832;60.658;2022-09-25T03:56:27;97511.81;;;13.57;69.51
42727;BME280;28372;56.832;60.658;2022-09-25T03:58:56;97513.84;;;13.45;68.83
42727;BME280;28372;56.832;60.658;2022-09-25T04:01:25;97524.31;;;13.43;69.61
42727;BME280;28372;56.832;60.658;2022-09-25T04:03:53;97527.81;;;13.40;67.95
42727;BME280;28372;56.832;60.658;2022-09-25T04:06:25;97535.53;;;13.52;70.44
42727;BME280;28372;56.832;60.658;2022-09-25T04:08:53;97534.03;;;13.33;70.19
42727;BME280;28372;56.832;60.658;2022-09-25T04:11:23;97530.97;;;13.31;69.90
42727;BME280;28372;56.832;60.658;2022-09-25T04:13:51;97524.72;;;13.31;68.82
42727;BME280;28372;56.832;60.658;2022-09-25T04:16:19;97519.34;;;13.24;69.65
42727;BME280;28372;56.832;60.658;2022-09-25T04:18:47;97526.28;;;13.28;70.27
42727;BME280;28372;56.832;60.658;2022-09-25T04:21:15;97524.38;;;13.25;68.39
42727;BME280;28372;56.832;60.658;2022-09-25T04:23:43;97536.81;;;13.19;70.08
42727;BME280;28372;56.832;60.658;2022-09-25T04:26:30;97536.00;;;13.29;70.97
42727;BME280;28372;56.832;60.658;2022-09-25T04:28:58;97535.59;;;13.31;70.17
42727;BME280;28372;56.832;60.658;2022-09-25T04:31:27;97537.53;;;13.34;70.05
42727;BME280;28372;56.832;60.658;2022-09-25T04:33:55;97525.53;;;13.28;68.68
42727;BME280;28372;56.832;60.658;2022-09-25T04:36:23;97548.84;;;13.22;68.64
42727;BME280;28372;56.832;60.658;2022-09-25T04:38:50;97538.75;;;13.22;70.04
42727;BME280;28372;56.832;60.658;2022-09-25T04:41:17;97544.13;;;13.29;69.75
42727;BME280;28372;56.832;60.658;2022-09-25T04:43:46;97544.94;;;13.30;69.47
42727;BME280;28372;56.832;60.658;2022-09-25T04:46:14;97545.69;;;13.34;68.39
42727;BME280;28372;56.832;60.658;2022-09-25T04:48:48;97550.72;;;13.32;69.18
42727;BME280;28372;56.832;60.658;2022-09-25T04:51:16;97539.47;;;13.33;69.48
42727;BME280;28372;56.832;60.658;2022-09-25T04:53:44;97539.47;;;13.33;68.58
42727;BME280;28372;56.832;60.658;2022-09-25T04:56:12;97544.91;;;13.37;66.57
42727;BME280;28372;56.832;60.658;2022-09-25T04:58:47;97551.50;;;13.36;69.55
42727;BME280;28372;56.832;60.658;2022-09-25T05:01:18;97543.34;;;13.32;67.43
42727;BME280;28372;56.832;60.658;2022-09-25T05:03:47;97551.94;;;13.24;68.11
42727;BME280;28372;56.832;60.658;2022-09-25T05:06:16;97555.84;;;13.15;67.53
42727;BME280;28372;56.832;60.658;2022-09-25T05:08:46;97560.47;;;13.26;67.28
42727;BME280;28372;56.832;60.658;2022-09-25T05:11:14;97562.09;;;13.09;67.40
42727;BME280;28372;56.832;60.658;2022-09-25T05:13:42;97550.06;;;13.06;67.64
42727;BME280;28372;56.832;60.658;2022-09-25T05:16:09;97563.28;;;13.00;68.54
42727;BME280;28372;56.832;60.658;2022-09-25T05:18:37;97553.19;;;12.97;69.16
42727;BME280;28372;56.832;60.658;2022-09-25T05:21:05;97556.66;;;13.01;68.74
42727;BME280;28372;56.832;60.658;2022-09-25T05:23:32;97561.34;;;12.94;69.67
42727;BME280;28372;56.832;60.658;2022-09-25T05:26:00;97573.75;;;12.98;71.08
42727;BME280;28372;56.832;60.658;2022-09-25T05:28:32;97560.19;;;12.95;69.56
42727;BME280;28372;56.832;60.658;2022-09-25T05:31:00;97564.84;;;12.91;68.59
42727;BME280;28372;56.832;60.658;2022-09-25T05:33:33;97565.63;;;12.88;69.48
42727;BME280;28372;56.832;60.658;2022-09-25T05:36:02;97563.66;;;12.95;70.96
42727;BME280;28372;56.832;60.658;2022-09-25T05:38:34;97572.19;;;13.01;68.95
42727;BME280;28372;56.832;60.658;2022-09-25T05:41:07;97573.75;;;13.02;69.21
42727;BME280;28372;56.832;60.658;2022-09-25T05:43:40;97579.19;;;12.95;71.81
42727;BME280;28372;56.832;60.658;2022-09-25T05:46:09;97583.84;;;12.98;68.62
42727;BME280;28372;56.832;60.658;2022-09-25T05:48:37;97594.69;;;12.98;69.80
42727;BME280;28372;56.832;60.658;2022-09-25T05:51:05;97580.72;;;12.96;67.99
42727;BME280;28372;56.832;60.658;2022-09-25T05:53:32;97579.16;;;13.02;69.16
42727;BME280;28372;56.832;60.658;2022-09-25T05:56:01;97591.94;;;13.12;67.86
42727;BME280;28372;56.832;60.658;2022-09-25T05:58:30;97574.50;;;13.06;68.42
42727;BME280;28372;56.832;60.658;2022-09-25T06:01:04;97567.09;;;13.14;68.28
42727;BME280;28372;56.832;60.658;2022-09-25T06:03:32;97582.63;;;13.13;67.06
42727;BME280;28372;56.832;60.658;2022-09-25T06:06:00;97567.13;;;13.10;66.64
42727;BME280;28372;56.832;60.658;2022-09-25T06:08:28;97567.09;;;13.14;67.62
42727;BME280;28372;56.832;60.658;2022-09-25T06:10:59;97563.22;;;13.11;67.88
42727;BME280;28372;56.832;60.658;2022-09-25T06:13:28;97561.28;;;13.12;68.66
42727;BME280;28372;56.832;60.658;2022-09-25T06:15:58;97558.94;;;13.14;67.50
42727;BME280;28372;56.832;60.658;2022-09-25T06:18:26;97547.28;;;13.17;66.25
42727;BME280;28372;56.832;60.658;2022-09-25T06:21:02;97536.44;;;13.24;66.98
42727;BME280;28372;56.832;60.658;2022-09-25T06:23:30;97553.13;;;13.15;66.08
42727;BME280;28372;56.832;60.658;2022-09-25T06:26:02;97554.63;;;13.24;66.64
42727;BME280;28372;56.832;60.658;2022-09-25T06:28:30;97564.31;;;13.28;66.60
42727;BME280;28372;56.832;60.658;2022-09-25T06:31:02;97560.81;;;13.35;67.28
42727;BME280;28372;56.832;60.658;2022-09-25T06:33:30;97554.22;;;13.32;66.44
42727;BME280;28372;56.832;60.658;2022-09-25T06:35:58;97548.41;;;13.30;63.86
42727;BME280;28372;56.832;60.658;2022-09-25T06:38:27;97551.94;;;13.24;64.63
42727;BME280;28372;56.832;60.658;2022-09-25T06:40:54;97544.94;;;13.26;65.40
42727;BME280;28372;56.832;60.658;2022-09-25T06:43:27;97548.44;;;13.19;64.49
42727;BME280;28372;56.832;60.658;2022-09-25T06:45:58;97546.53;;;13.20;65.49
42727;BME280;28372;56.832;60.658;2022-09-25T06:48:26;97549.25;;;13.16;63.32
42727;BME280;28372;56.832;60.658;2022-09-25T06:50:55;97545.78;;;13.12;65.01
42727;BME280;28372;56.832;60.658;2022-09-25T06:53:24;97534.50;;;13.17;64.53
42727;BME280;28372;56.832;60.658;2022-09-25T06:55:55;97535.22;;;13.25;65.01
42727;BME280;28372;56.832;60.658;2022-09-25T06:58:23;97549.25;;;13.20;63.61
42727;BME280;28372;56.832;60.658;2022-09-25T07:00:54;97542.25;;;13.19;62.78
42727;BME280;28372;56.832;60.658;2022-09-25T07:03:22;97542.63;;;13.25;64.44
42727;BME280;28372;56.832;60.658;2022-09-25T07:06:11;97545.72;;;13.23;63.05
42727;BME280;28372;56.832;60.658;2022-09-25T07:08:39;97538.38;;;13.16;62.10
42727;BME280;28372;56.832;60.658;2022-09-25T07:11:07;97540.72;;;13.14;62.13
42727;BME280;28372;56.832;60.658;2022-09-25T07:13:35;97537.59;;;13.19;63.05
42727;BME280;28372;56.832;60.658;2022-09-25T07:16:05;97536.03;;;13.22;62.65
42727;BME280;28372;56.832;60.658;2022-09-25T07:18:33;97517.81;;;13.19;61.99
42727;BME280;28372;56.832;60.658;2022-09-25T07:21:10;97527.03;;;13.47;60.93
42727;BME280;28372;56.832;60.658;2022-09-25T07:23:38;97551.53;;;13.25;60.77
42727;BME280;28372;56.832;60.658;2022-09-25T07:26:31;97560.41;;;13.40;62.55
42727;BME280;28372;56.832;60.658;2022-09-25T07:29:04;97571.72;;;13.24;61.53
42727;BME280;28372;56.832;60.658;2022-09-25T07:31:33;97576.72;;;13.33;61.16
42727;BME280;28372;56.832;60.658;2022-09-25T07:34:01;97586.06;;;13.25;60.61
42727;BME280;28372;56.832;60.658;2022-09-25T07:36:36;97587.66;;;13.18;59.87
42727;BME280;28372;56.832;60.658;2022-09-25T07:39:07;97581.84;;;13.20;60.25
42727;BME280;28372;56.832;60.658;2022-09-25T07:41:35;97577.97;;;13.17;60.72
42727;BME280;28372;56.832;60.658;2022-09-25T07:44:03;97549.63;;;13.18;59.46
42727;BME280;28372;56.832;60.658;2022-09-25T07:46:51;97554.31;;;13.14;59.89
42727;BME280;28372;56.832;60.658;2022-09-25T07:49:19;97540.72;;;13.11;59.46
42727;BME280;28372;56.832;60.658;2022-09-25T07:51:46;97542.31;;;13.01;60.76
42727;BME280;28372;56.832;60.658;2022-09-25T07:54:13;97532.66;;;12.93;60.39
42727;BME280;28372;56.832;60.658;2022-09-25T07:56:41;97544.31;;;12.86;60.86
42727;BME280;28372;56.832;60.658;2022-09-25T07:59:08;97543.91;;;12.88;62.03
42727;BME280;28372;56.832;60.658;2022-09-25T08:01:36;97535.75;;;12.98;63.00
42727;BME280;28372;56.832;60.658;2022-09-25T08:04:10;97535.41;;;12.85;60.97
42727;BME280;28372;56.832;60.658;2022-09-25T08:06:38;97531.53;;;12.83;60.75
42727;BME280;28372;56.832;60.658;2022-09-25T08:09:05;97530.38;;;12.73;60.74
42727;BME280;28372;56.832;60.658;2022-09-25T08:11:37;97530.75;;;12.79;61.32
42727;BME280;28372;56.832;60.658;2022-09-25T08:14:04;97533.88;;;12.74;60.81
42727;BME280;28372;56.832;60.658;2022-09-25T08:16:32;97533.88;;;12.70;61.17
42727;BME280;28372;56.832;60.658;2022-09-25T08:18:59;97531.97;;;12.67;61.21
42727;BME280;28372;56.832;60.658;2022-09-25T08:21:26;97522.25;;;12.77;61.29
42727;BME280;28372;56.832;60.658;2022-09-25T08:23:54;97513.72;;;12.75;60.37
42727;BME280;28372;56.832;60.658;2022-09-25T08:26:22;97519.53;;;12.77;61.45
42727;BME280;28372;56.832;60.658;2022-09-25T08:28:50;97532.31;;;12.80;60.64
42727;BME280;28372;56.832;60.658;2022-09-25T08:31:18;97517.19;;;12.82;60.59
42727;BME280;28372;56.832;60.658;2022-09-25T08:33:47;97529.22;;;12.71;60.79
42727;BME280;28372;56.832;60.658;2022-09-25T08:36:16;97520.31;;;12.74;61.28
42727;BME280;28372;56.832;60.658;2022-09-25T08:38:44;97514.91;;;12.59;61.22
42727;BME280;28372;56.832;60.658;2022-09-25T08:41:28;97507.88;;;12.80;60.94
42727;BME280;28372;56.832;60.658;2022-09-25T08:44:08;97514.13;;;12.66;61.48
42727;BME280;28372;56.832;60.658;2022-09-25T08:46:42;97504.03;;;12.70;61.32
42727;BME280;28372;56.832;60.658;2022-09-25T08:49:35;97507.13;;;12.72;62.89
42727;BME280;28372;56.832;60.658;2022-09-25T08:52:07;97514.47;;;12.79;61.81
42727;BME280;28372;56.832;60.658;2022-09-25T08:54:39;97500.16;;;12.67;60.64
42727;BME280;28372;56.832;60.658;2022-09-25T08:59:56;97501.34;;;12.74;61.97
42727;BME280;28372;56.832;60.658;2022-09-25T09:02:35;97482.69;;;12.79;62.46
42727;BME280;28372;56.832;60.658;2022-09-25T09:05:13;97485.03;;;12.77;62.54
42727;BME280;28372;56.832;60.658;2022-09-25T09:07:43;97495.47;;;12.82;61.76
42727;BME280;28372;56.832;60.658;2022-09-25T09:12:59;97502.06;;;12.85;63.50
42727;BME280;28372;56.832;60.658;2022-09-25T09:15:36;97502.44;;;12.87;60.41
42727;BME280;28372;56.832;60.658;2022-09-25T09:21:00;97517.13;;;12.97;60.71
42727;BME280;28372;56.832;60.658;2022-09-25T09:23:42;97517.16;;;12.93;61.11
42727;BME280;28372;56.832;60.658;2022-09-25T09:26:27;97503.94;;;12.99;61.01
42727;BME280;28372;56.832;60.658;2022-09-25T09:34:55;97514.78;;;13.02;59.81
42727;BME280;28372;56.832;60.658;2022-09-25T09:48:45;97519.09;;;12.85;59.15
42727;BME280;28372;56.832;60.658;2022-09-25T09:51:18;97520.31;;;12.70;59.30
42727;BME280;28372;56.832;60.658;2022-09-25T09:54:03;97523.38;;;12.83;61.05
42727;BME280;28372;56.832;60.658;2022-09-25T09:56:33;97511.41;;;12.66;59.02
42727;BME280;28372;56.832;60.658;2022-09-25T09:59:21;97513.72;;;12.78;60.98
42727;BME280;28372;56.832;60.658;2022-09-25T10:02:04;97530.81;;;12.64;60.42
42727;BME280;28372;56.832;60.658;2022-09-25T10:04:38;97523.84;;;12.60;60.22
42727;BME280;28372;56.832;60.658;2022-09-25T10:07:12;97524.97;;;12.66;61.31
42727;BME280;28372;56.832;60.658;2022-09-25T10:09:43;97526.97;;;12.47;60.46
42727;BME280;28372;56.832;60.658;2022-09-25T10:12:31;97524.66;;;12.39;61.12
42727;BME280;28372;56.832;60.658;2022-09-25T10:15:03;97540.16;;;12.16;61.21
42727;BME280;28372;56.832;60.658;2022-09-25T10:17:32;97532.78;;;12.39;60.58
42727;BME280;28372;56.832;60.658;2022-09-25T10:20:18;97531.22;;;12.48;61.56
42727;BME280;28372;56.832;60.658;2022-09-25T10:22:51;97523.50;;;12.36;62.71
42727;BME280;28372;56.832;60.658;2022-09-25T10:25:34;97526.19;;;12.54;63.11
42727;BME280;28372;56.832;60.658;2022-09-25T10:28:25;97516.47;;;12.64;62.30
42727;BME280;28372;56.832;60.658;2022-09-25T10:30:54;97513.78;;;12.53;62.06
42727;BME280;28372;56.832;60.658;2022-09-25T10:33:28;97514.91;;;12.63;62.79
42727;BME280;28372;56.832;60.658;2022-09-25T10:35:57;97507.94;;;12.62;60.66
42727;BME280;28372;56.832;60.658;2022-09-25T10:38:36;97522.63;;;12.75;61.11
42727;BME280;28372;56.832;60.658;2022-09-25T10:41:11;97526.47;;;12.89;60.31
42727;BME280;28372;56.832;60.658;2022-09-25T10:44:08;97521.72;;;13.07;59.32
42727;BME280;28372;56.832;60.658;2022-09-25T10:46:45;97515.25;;;12.87;58.91
42727;BME280;28372;56.832;60.658;2022-09-25T10:49:31;97515.56;;;12.96;58.66
42727;BME280;28372;56.832;60.658;2022-09-25T10:52:28;97507.09;;;12.87;58.13
42727;BME280;28372;56.832;60.658;2022-09-25T10:55:22;97517.50;;;13.06;59.26
42727;BME280;28372;56.832;60.658;2022-09-25T11:03:17;97517.94;;;12.83;67.14
42727;BME280;28372;56.832;60.658;2022-09-25T11:08:28;97525.31;;;12.86;72.97
42727;BME280;28372;56.832;60.658;2022-09-25T11:11:00;97511.03;;;12.67;67.71
42727;BME280;28372;56.832;60.658;2022-09-25T11:13:32;97520.75;;;12.61;65.64
42727;BME280;28372;56.832;60.658;2022-09-25T11:16:05;97511.03;;;12.71;64.82
42727;BME280;28372;56.832;60.658;2022-09-25T11:18:42;97516.06;;;12.73;63.19
42727;BME280;28372;56.832;60.658;2022-09-25T11:21:43;97508.66;;;12.84;63.56
42727;BME280;28372;56.832;60.658;2022-09-25T11:24:55;97506.31;;;12.93;63.74
42727;BME280;28372;56.832;60.658;2022-09-25T11:38:33;97463.31;;;12.81;59.68
42727;BME280;28372;56.832;60.658;2022-09-25T11:44:12;97444.69;;;12.83;59.64
42727;BME280;28372;56.832;60.658;2022-09-25T11:49:38;97470.22;;;12.93;56.71
42727;BME280;28372;56.832;60.658;2022-09-25T11:57:59;97447.34;;;12.90;57.20
42727;BME280;28372;56.832;60.658;2022-09-25T12:12:10;97408.94;;;12.95;54.62
42727;BME280;28372;56.832;60.658;2022-09-25T12:15:04;97415.56;;;12.91;54.02
42727;BME280;28372;56.832;60.658;2022-09-25T12:17:52;97412.16;;;12.72;55.71
42727;BME280;28372;56.832;60.658;2022-09-25T12:20:28;97416.84;;;12.64;53.90
42727;BME280;28372;56.832;60.658;2022-09-25T12:28:02;97435.13;;;12.53;53.60
42727;BME280;28372;56.832;60.658;2022-09-25T12:33:32;97400.88;;;12.81;53.28
42727;BME280;28372;56.832;60.658;2022-09-25T12:36:08;97400.91;;;12.77;53.38
42727;BME280;28372;56.832;60.658;2022-09-25T12:38:48;97402.09;;;12.69;53.88
42727;BME280;28372;56.832;60.658;2022-09-25T12:44:00;97417.22;;;12.70;54.48
42727;BME280;28372;56.832;60.658;2022-09-25T12:46:37;97419.56;;;12.64;53.85
42727;BME280;28372;56.832;60.658;2022-09-25T12:49:39;97426.09;;;12.78;53.45
42727;BME280;28372;56.832;60.658;2022-09-25T12:52:20;97430.75;;;12.77;53.83
42727;BME280;28372;56.832;60.658;2022-09-25T12:55:02;97439.00;;;12.48;52.98
42727;BME280;28372;56.832;60.658;2022-09-25T13:00:14;97428.94;;;12.38;52.56
42727;BME280;28372;56.832;60.658;2022-09-25T13:05:22;97441.34;;;12.43;53.22
42727;BME280;28372;56.832;60.658;2022-09-25T13:10:41;97448.72;;;12.35;53.35
42727;BME280;28372;56.832;60.658;2022-09-25T13:13:18;97432.81;;;12.37;53.10
42727;BME280;28372;56.832;60.658;2022-09-25T13:15:50;97458.44;;;12.29;53.53
42727;BME280;28372;56.832;60.658;2022-09-25T13:18:23;97453.78;;;12.19;51.93
42727;BME280;28372;56.832;60.658;2022-09-25T13:20:55;97448.34;;;12.26;53.06
42727;BME280;28372;56.832;60.658;2022-09-25T13:23:33;97469.25;;;12.22;52.56
42727;BME280;28372;56.832;60.658;2022-09-25T13:26:19;97454.91;;;12.36;53.18
42727;BME280;28372;56.832;60.658;2022-09-25T13:28:55;97461.13;;;12.22;52.54
42727;BME280;28372;56.832;60.658;2022-09-25T13:31:28;97460.78;;;12.23;52.51
42727;BME280;28372;56.832;60.658;2022-09-25T13:36:37;97442.16;;;12.25;52.31
42727;BME280;28372;56.832;60.658;2022-09-25T13:39:34;97459.56;;;12.31;52.28
42727;BME280;28372;56.832;60.658;2022-09-25T13:42:30;97457.28;;;12.12;52.89
42727;BME280;28372;56.832;60.658;2022-09-25T13:45:35;97440.22;;;12.26;52.93
42727;BME280;28372;56.832;60.658;2022-09-25T13:48:32;97439.09;;;12.12;51.95
42727;BME280;28372;56.832;60.658;2022-09-25T13:54:01;97453.81;;;12.04;52.63
42727;BME280;28372;56.832;60.658;2022-09-25T13:59:19;97444.53;;;11.94;53.52
42727;BME280;28372;56.832;60.658;2022-09-25T14:01:55;97459.59;;;11.74;53.07
42727;BME280;28372;56.832;60.658;2022-09-25T14:04:35;97444.13;;;11.78;53.71
42727;BME280;28372;56.832;60.658;2022-09-25T14:07:16;97452.25;;;11.71;53.97
42727;BME280;28372;56.832;60.658;2022-09-25T14:09:49;97438.34;;;11.61;53.98
42727;BME280;28372;56.832;60.658;2022-09-25T14:12:41;97440.63;;;11.85;53.27
42727;BME280;28372;56.832;60.658;2022-09-25T14:15:28;97444.13;;;11.81;53.99
42727;BME280;28372;56.832;60.658;2022-09-25T14:18:00;97441.44;;;11.74;53.58
42727;BME280;28372;56.832;60.658;2022-09-25T14:20:36;97446.47;;;11.87;53.74
42727;BME280;28372;56.832;60.658;2022-09-25T14:23:12;97434.81;;;11.86;54.20
42727;BME280;28372;56.832;60.658;2022-09-25T14:25:41;97435.22;;;11.81;52.96
42727;BME280;28372;56.832;60.658;2022-09-25T14:28:23;97432.09;;;11.93;52.81
42727;BME280;28372;56.832;60.658;2022-09-25T14:40:15;97422.84;;;11.76;56.18
42727;BME280;28372;56.832;60.658;2022-09-25T14:43:07;97420.13;;;11.69;58.27
42727;BME280;28372;56.832;60.658;2022-09-25T14:51:47;97432.50;;;11.74;57.50
42727;BME280;28372;56.832;60.658;2022-09-25T14:54:18;97441.81;;;11.47;58.13
42727;BME280;28372;56.832;60.658;2022-09-25T14:56:49;97429.00;;;11.44;58.33
42727;BME280;28372;56.832;60.658;2022-09-25T14:59:35;97425.94;;;11.57;60.84
42727;BME280;28372;56.832;60.658;2022-09-25T15:02:18;97422.47;;;11.56;58.11
42727;BME280;28372;56.832;60.658;2022-09-25T15:04:49;97400.00;;;11.30;55.41
42727;BME280;28372;56.832;60.658;2022-09-25T15:07:21;97435.22;;;11.56;56.46
42727;BME280;28372;56.832;60.658;2022-09-25T15:09:51;97429.81;;;11.38;54.85
42727;BME280;28372;56.832;60.658;2022-09-25T15:12:31;97422.84;;;11.51;54.39
42727;BME280;28372;56.832;60.658;2022-09-25T15:15:11;97437.53;;;11.50;55.25
42727;BME280;28372;56.832;60.658;2022-09-25T15:17:53;97441.03;;;11.65;55.06
42727;BME280;28372;56.832;60.658;2022-09-25T15:20:29;97443.34;;;11.59;56.87
42727;BME280;28372;56.832;60.658;2022-09-25T15:23:06;97440.25;;;11.61;55.60
42727;BME280;28372;56.832;60.658;2022-09-25T15:25:40;97449.53;;;11.56;58.06
42727;BME280;28372;56.832;60.658;2022-09-25T15:28:20;97446.44;;;11.54;58.13
42727;BME280;28372;56.832;60.658;2022-09-25T15:30:59;97441.41;;;11.38;58.08
42727;BME280;28372;56.832;60.658;2022-09-25T15:33:29;97431.31;;;11.17;56.98
42727;BME280;28372;56.832;60.658;2022-09-25T15:35:59;97435.16;;;11.02;58.50
42727;BME280;28372;56.832;60.658;2022-09-25T15:38:35;97423.22;;;11.21;59.82